createdAt,value
2018-01-03T00:00:45.457Z,45.3
2018-01-03T00:01:46.794Z,45.2
2018-01-03T00:02:48.689Z,45.2
2018-01-03T00:03:50.308Z,45.3
2018-01-03T00:04:52.201Z,45.3
2018-01-03T00:05:53.523Z,45.2
2018-01-03T00:06:55.141Z,45.3
2018-01-03T00:07:56.480Z,45.3
2018-01-03T00:08:57.818Z,45.3
2018-01-03T00:09:59.157Z,45.2
2018-01-03T00:11:00.218Z,45.2
2018-01-03T00:12:01.536Z,45.2
2018-01-03T00:13:03.159Z,45.1
2018-01-03T00:14:04.782Z,45.3
2018-01-03T00:15:06.398Z,45.1
2018-01-03T00:16:08.295Z,45.3
2018-01-03T00:17:09.914Z,45.1
2018-01-03T00:18:11.530Z,45.2
2018-01-03T00:19:12.851Z,45.1
2018-01-03T00:20:14.466Z,45.2
2018-01-03T00:21:15.802Z,45.2
2018-01-03T00:22:17.143Z,45.3
2018-01-03T00:23:19.037Z,45.3
2018-01-03T00:24:20.377Z,45.3
2018-01-03T00:25:21.977Z,45.5
2018-01-03T00:26:23.871Z,45.2
2018-01-03T00:27:25.210Z,45.1
2018-01-03T00:28:27.109Z,45.1
2018-01-03T00:29:29.000Z,45.3
2018-01-03T00:30:30.599Z,45.1
2018-01-03T00:31:32.496Z,45.3
2018-01-03T00:32:34.113Z,45.2
2018-01-03T00:33:36.010Z,45.1
2018-01-03T00:34:37.627Z,45.1
2018-01-03T00:35:38.670Z,45.1
2018-01-03T00:36:40.291Z,45.3
2018-01-03T00:37:41.906Z,45.4
2018-01-03T00:38:43.804Z,45.8
2018-01-03T00:39:45.703Z,45.3
2018-01-03T00:40:47.049Z,45.6
2018-01-03T00:41:48.945Z,45.8
2018-01-03T00:42:50.871Z,45.4
2018-01-03T00:43:52.468Z,45.7
2018-01-03T00:44:54.365Z,45.4
2018-01-03T00:45:55.962Z,45.8
2018-01-03T00:46:57.861Z,45.9
2018-01-03T00:47:59.493Z,45.7
2018-01-03T00:49:01.110Z,46
2018-01-03T00:50:02.148Z,45.6
2018-01-03T00:51:02.913Z,45.7
2018-01-03T00:52:04.565Z,45.7
2018-01-03T00:53:06.160Z,45.9
2018-01-03T00:54:08.055Z,45.8
2018-01-03T00:55:09.375Z,45.7
2018-01-03T00:56:10.992Z,45.8
2018-01-03T00:57:12.613Z,45.5
2018-01-03T00:58:13.377Z,45.3
2018-01-03T00:59:14.974Z,45.6
2018-01-03T01:00:16.595Z,45.5
2018-01-03T01:01:18.495Z,45.2
2018-01-03T01:02:19.811Z,45.3
2018-01-03T01:03:21.427Z,45.6
2018-01-03T01:04:22.776Z,45.6
2018-01-03T01:05:24.394Z,45.7
2018-01-03T01:06:25.432Z,45.7
2018-01-03T01:07:27.052Z,45.6
2018-01-03T01:08:28.670Z,45.7
2018-01-03T01:09:30.565Z,45.7
2018-01-03T01:10:31.925Z,45.4
2018-01-03T01:11:33.552Z,45.7
2018-01-03T01:12:35.445Z,45.7
2018-01-03T01:13:37.341Z,45.6
2018-01-03T01:14:38.959Z,45.8
2018-01-03T01:15:40.854Z,45.6
2018-01-03T01:16:42.749Z,45.2
2018-01-03T01:17:44.348Z,45.6
2018-01-03T01:18:45.966Z,45.5
2018-01-03T01:19:47.860Z,45.2
2018-01-03T01:20:49.754Z,45.6
2018-01-03T01:21:50.814Z,45.6
2018-01-03T01:22:52.718Z,45.6
2018-01-03T01:23:54.336Z,45.7
2018-01-03T01:24:56.280Z,45.5
2018-01-03T01:25:58.174Z,45.7
2018-01-03T01:26:59.218Z,45.7
2018-01-03T01:28:01.166Z,45.6
2018-01-03T01:29:03.049Z,45.6
2018-01-03T01:30:04.374Z,45.8
2018-01-03T01:31:06.023Z,45.6
2018-01-03T01:32:07.639Z,45.6
2018-01-03T01:33:09.539Z,45.6
2018-01-03T01:34:11.165Z,45.6
2018-01-03T01:35:12.785Z,45.5
2018-01-03T01:36:13.824Z,45.6
2018-01-03T01:37:15.141Z,45.6
2018-01-03T01:38:17.067Z,45.8
2018-01-03T01:39:18.684Z,45.5
2018-01-03T01:40:20.027Z,45.5
2018-01-03T01:41:21.645Z,45.5
2018-01-03T01:42:23.244Z,45.8
2018-01-03T01:43:25.140Z,45.9
2018-01-03T01:44:26.759Z,45.9
2018-01-03T01:45:28.657Z,45.9
2018-01-03T01:46:30.274Z,45.8
2018-01-03T01:47:31.335Z,45.9
2018-01-03T01:48:32.395Z,45.7
2018-01-03T01:49:34.289Z,45.7
2018-01-03T01:50:35.912Z,46
2018-01-03T01:51:37.808Z,45.8
2018-01-03T01:52:39.404Z,45.9
2018-01-03T01:53:40.747Z,45.9
2018-01-03T01:54:41.791Z,45.8
2018-01-03T01:55:43.689Z,45.9
2018-01-03T01:56:45.315Z,45.8
2018-01-03T01:57:47.204Z,45.9
2018-01-03T01:58:48.804Z,46
2018-01-03T01:59:50.145Z,46
2018-01-03T02:00:52.043Z,45.8
2018-01-03T02:01:53.940Z,45.9
2018-01-03T02:02:54.986Z,45.8
2018-01-03T02:03:56.605Z,46.1
2018-01-03T02:04:58.223Z,46
2018-01-03T02:06:00.126Z,46.2
2018-01-03T02:07:02.012Z,46.2
2018-01-03T02:08:03.351Z,45.7
2018-01-03T02:09:04.971Z,45.7
2018-01-03T02:10:06.589Z,45.7
2018-01-03T02:11:07.650Z,45.7
2018-01-03T02:12:09.288Z,45.7
2018-01-03T02:13:11.226Z,45.7
2018-01-03T02:14:12.842Z,45.8
2018-01-03T02:15:14.742Z,46
2018-01-03T02:16:16.360Z,45.9
2018-01-03T02:17:17.980Z,45.8
2018-01-03T02:18:19.318Z,45.8
2018-01-03T02:19:20.935Z,45.8
2018-01-03T02:20:22.277Z,45.8
2018-01-03T02:21:23.896Z,45.8
2018-01-03T02:22:25.517Z,45.8
2018-01-03T02:23:27.413Z,45.9
2018-01-03T02:24:29.337Z,45.8
2018-01-03T02:25:31.235Z,45.8
2018-01-03T02:26:33.129Z,45.9
2018-01-03T02:27:34.475Z,45.8
2018-01-03T02:28:36.091Z,46.1
2018-01-03T02:29:37.990Z,46.1
2018-01-03T02:30:39.309Z,46.1
2018-01-03T02:31:40.630Z,46.1
2018-01-03T02:32:41.974Z,46.1
2018-01-03T02:33:43.593Z,46
2018-01-03T02:34:45.212Z,46
2018-01-03T02:35:47.118Z,46.1
2018-01-03T02:36:48.163Z,46.1
2018-01-03T02:37:49.480Z,46.3
2018-01-03T02:38:50.820Z,46.1
2018-01-03T02:39:52.716Z,46.2
2018-01-03T02:40:54.347Z,46
2018-01-03T02:41:55.385Z,46.3
2018-01-03T02:42:57.053Z,46.1
2018-01-03T02:43:58.662Z,46.3
2018-01-03T02:45:00.296Z,46.4
2018-01-03T02:46:02.194Z,46.3
2018-01-03T02:47:03.812Z,46.1
2018-01-03T02:48:04.858Z,46.2
2018-01-03T02:49:06.197Z,46.2
2018-01-03T02:50:07.818Z,46.3
2018-01-03T02:51:09.416Z,46.1
2018-01-03T02:52:10.181Z,46.3
2018-01-03T02:53:11.524Z,46.5
2018-01-03T02:54:12.846Z,46.3
2018-01-03T02:55:13.899Z,46.5
2018-01-03T02:56:14.962Z,46.5
2018-01-03T02:57:16.581Z,46.2
2018-01-03T02:58:18.186Z,46.3
2018-01-03T02:59:20.076Z,46.2
2018-01-03T03:00:21.694Z,46.5
2018-01-03T03:01:23.311Z,46.6
2018-01-03T03:02:24.930Z,46.6
2018-01-03T03:03:26.550Z,46.6
2018-01-03T03:04:28.147Z,46.4
2018-01-03T03:05:29.488Z,46.6
2018-01-03T03:06:31.087Z,46.7
2018-01-03T03:07:32.993Z,46.6
2018-01-03T03:08:34.035Z,46.4
2018-01-03T03:09:35.077Z,46.2
2018-01-03T03:10:36.710Z,46.5
2018-01-03T03:11:38.062Z,46.6
2018-01-03T03:12:39.949Z,46.8
2018-01-03T03:13:41.272Z,46.5
2018-01-03T03:14:43.168Z,46.7
2018-01-03T03:15:45.066Z,46.5
2018-01-03T03:16:46.109Z,46.8
2018-01-03T03:17:48.006Z,46.5
2018-01-03T03:18:49.901Z,46.8
2018-01-03T03:19:51.223Z,46.7
2018-01-03T03:20:52.855Z,46.8
2018-01-03T03:21:54.197Z,46.6
2018-01-03T03:22:55.514Z,46.7
2018-01-03T03:23:57.132Z,46.6
2018-01-03T03:24:58.752Z,46.7
2018-01-03T03:26:00.371Z,46.5
2018-01-03T03:27:02.273Z,46.6
2018-01-03T03:28:03.884Z,46.5
2018-01-03T03:29:05.504Z,46.8
2018-01-03T03:30:06.844Z,46.8
2018-01-03T03:31:08.203Z,46.7
2018-01-03T03:32:10.091Z,46.5
2018-01-03T03:33:11.710Z,46.6
2018-01-03T03:34:13.327Z,46.5
2018-01-03T03:35:14.666Z,46.5
2018-01-03T03:36:16.287Z,46.6
2018-01-03T03:37:17.615Z,46.6
2018-01-03T03:38:19.233Z,46.8
2018-01-03T03:39:21.128Z,46.8
2018-01-03T03:40:22.455Z,47
2018-01-03T03:41:24.063Z,47
2018-01-03T03:42:25.382Z,47.1
2018-01-03T03:43:27.007Z,46.9
2018-01-03T03:44:28.910Z,46.8
2018-01-03T03:45:29.941Z,47
2018-01-03T03:46:31.283Z,46.9
2018-01-03T03:47:33.183Z,46.9
2018-01-03T03:48:35.079Z,47
2018-01-03T03:49:36.679Z,46.8
2018-01-03T03:50:38.025Z,47
2018-01-03T03:51:39.916Z,46.8
2018-01-03T03:52:41.260Z,46.8
2018-01-03T03:53:42.601Z,46.9
2018-01-03T03:54:44.221Z,46.9
2018-01-03T03:55:45.838Z,46.9
2018-01-03T03:56:47.459Z,47.1
2018-01-03T03:57:48.775Z,47.1
2018-01-03T03:58:50.670Z,46.9
2018-01-03T03:59:52.565Z,46.9
2018-01-03T04:00:54.168Z,47
2018-01-03T04:01:55.487Z,46.9
2018-01-03T04:02:57.384Z,46.9
2018-01-03T04:03:59.003Z,46.9
2018-01-03T04:05:00.900Z,46.9
2018-01-03T04:06:02.543Z,46.9
2018-01-03T04:07:03.582Z,46.9
2018-01-03T04:08:05.205Z,47
2018-01-03T04:09:06.296Z,46.8
2018-01-03T04:10:07.917Z,47
2018-01-03T04:11:09.535Z,47
2018-01-03T04:12:11.433Z,46.8
2018-01-03T04:13:13.331Z,47
2018-01-03T04:14:14.952Z,46.9
2018-01-03T04:15:16.294Z,46.7
2018-01-03T04:16:17.617Z,46.7
2018-01-03T04:17:19.235Z,46.8
2018-01-03T04:18:20.853Z,46.8
2018-01-03T04:19:21.899Z,47
2018-01-03T04:20:23.218Z,46.9
2018-01-03T04:21:25.116Z,46.8
2018-01-03T04:22:26.157Z,47
2018-01-03T04:23:27.778Z,46.9
2018-01-03T04:24:29.124Z,46.9
2018-01-03T04:25:30.741Z,46.8
2018-01-03T04:26:32.359Z,46.8
2018-01-03T04:27:33.975Z,46.8
2018-01-03T04:28:35.572Z,46.9
2018-01-03T04:29:37.170Z,46.9
2018-01-03T04:30:38.764Z,46.9
2018-01-03T04:31:40.085Z,46.9
2018-01-03T04:32:41.984Z,47
2018-01-03T04:33:43.028Z,47
2018-01-03T04:34:44.925Z,46.8
2018-01-03T04:35:46.551Z,47.2
2018-01-03T04:36:48.448Z,47
2018-01-03T04:37:49.493Z,46.8
2018-01-03T04:38:50.812Z,46.8
2018-01-03T04:39:52.412Z,46.9
2018-01-03T04:40:54.310Z,46.8
2018-01-03T04:41:55.352Z,46.9
2018-01-03T04:42:56.972Z,46.9
2018-01-03T04:43:58.596Z,46.7
2018-01-03T04:45:00.246Z,47
2018-01-03T04:46:01.869Z,46.8
2018-01-03T04:47:03.482Z,46.9
2018-01-03T04:48:04.824Z,46.8
2018-01-03T04:49:06.424Z,46.9
2018-01-03T04:50:08.045Z,46.8
2018-01-03T04:51:09.106Z,46.9
2018-01-03T04:52:10.722Z,46.8
2018-01-03T04:53:12.619Z,46.9
2018-01-03T04:54:14.518Z,46.8
2018-01-03T04:55:16.416Z,46.8
2018-01-03T04:56:18.051Z,47
2018-01-03T04:57:19.933Z,46.8
2018-01-03T04:58:21.552Z,47.1
2018-01-03T04:59:23.174Z,46.9
2018-01-03T05:00:24.772Z,46.8
2018-01-03T05:01:26.672Z,46.9
2018-01-03T05:02:28.269Z,46.8
2018-01-03T05:03:30.163Z,47.1
2018-01-03T05:04:31.486Z,46.8
2018-01-03T05:05:33.383Z,47
2018-01-03T05:06:34.986Z,47
2018-01-03T05:07:36.303Z,46.9
2018-01-03T05:08:37.660Z,46.8
2018-01-03T05:09:39.279Z,46.9
2018-01-03T05:10:40.604Z,46.8
2018-01-03T05:11:42.222Z,46.7
2018-01-03T05:12:43.844Z,46.9
2018-01-03T05:13:45.172Z,46.7
2018-01-03T05:14:46.490Z,46.9
2018-01-03T05:15:48.111Z,47
2018-01-03T05:16:49.729Z,47
2018-01-03T05:17:51.347Z,47.1
2018-01-03T05:18:53.248Z,47.1
2018-01-03T05:19:54.287Z,47.5
2018-01-03T05:20:55.906Z,47.8
2018-01-03T05:21:57.526Z,47.5
2018-01-03T05:22:59.124Z,48
2018-01-03T05:24:01.020Z,47.8
2018-01-03T05:25:02.916Z,47.4
2018-01-03T05:26:04.256Z,47.2
2018-01-03T05:27:05.299Z,47.7
2018-01-03T05:28:06.916Z,47.4
2018-01-03T05:29:08.538Z,47.8
2018-01-03T05:30:10.153Z,47.8
2018-01-03T05:31:11.775Z,47.7
2018-01-03T05:32:13.672Z,48
2018-01-03T05:33:15.272Z,47.9
2018-01-03T05:34:16.589Z,47.9
2018-01-03T05:35:18.210Z,47.8
2018-01-03T05:36:19.830Z,47.8
2018-01-03T05:37:21.448Z,47.9
2018-01-03T05:38:23.067Z,47.8
2018-01-03T05:39:24.964Z,47.6
2018-01-03T05:40:26.584Z,47.6
2018-01-03T05:41:28.184Z,47.6
2018-01-03T05:42:30.080Z,47.3
2018-01-03T05:43:31.699Z,47.4
2018-01-03T05:44:33.018Z,47.6
2018-01-03T05:45:34.685Z,47.8
2018-01-03T05:46:36.581Z,47.9
2018-01-03T05:47:38.209Z,47.8
2018-01-03T05:48:39.806Z,47.9
2018-01-03T05:49:41.132Z,47.7
2018-01-03T05:50:42.472Z,47.6
2018-01-03T05:51:44.094Z,47.8
2018-01-03T05:52:45.713Z,47.4
2018-01-03T05:53:46.755Z,47.5
2018-01-03T05:54:48.106Z,48.2
2018-01-03T05:55:49.450Z,47.9
2018-01-03T05:56:50.774Z,47.7
2018-01-03T05:57:52.388Z,48.2
2018-01-03T05:58:53.986Z,48.3
2018-01-03T05:59:55.884Z,47.8
2018-01-03T06:00:57.784Z,48.3
2018-01-03T06:01:59.406Z,48.4
2018-01-03T06:03:00.770Z,47.9
2018-01-03T06:04:02.369Z,48.4
2018-01-03T06:05:03.710Z,48
2018-01-03T06:06:05.331Z,47.8
2018-01-03T06:07:07.228Z,47.8
2018-01-03T06:08:08.293Z,48.4
2018-01-03T06:09:09.877Z,48.2
2018-01-03T06:10:11.772Z,48
2018-01-03T06:11:13.094Z,48.2
2018-01-03T06:12:15.032Z,48.3
2018-01-03T06:13:16.949Z,48
2018-01-03T06:14:18.268Z,47.8
2018-01-03T06:15:20.190Z,48
2018-01-03T06:16:21.533Z,48.2
2018-01-03T06:17:22.876Z,48.1
2018-01-03T06:18:24.770Z,48
2018-01-03T06:19:26.670Z,47.7
2018-01-03T06:20:28.587Z,48.3
2018-01-03T06:21:30.208Z,48
2018-01-03T06:22:31.845Z,47.8
2018-01-03T06:23:33.187Z,48
2018-01-03T06:24:34.809Z,48
2018-01-03T06:25:36.428Z,48
2018-01-03T06:26:38.321Z,47.8
2018-01-03T06:27:39.919Z,47.7
2018-01-03T06:28:41.818Z,48.2
2018-01-03T06:29:43.713Z,48.3
2018-01-03T06:30:45.609Z,48
2018-01-03T06:31:46.951Z,48.2
2018-01-03T06:32:48.573Z,48
2018-01-03T06:33:50.170Z,48
2018-01-03T06:34:51.234Z,47.8
2018-01-03T06:35:52.853Z,48
2018-01-03T06:36:54.748Z,48.2
2018-01-03T06:37:56.369Z,47.8
2018-01-03T06:38:58.271Z,48.1
2018-01-03T06:40:00.164Z,48.2
2018-01-03T06:41:01.782Z,48.2
2018-01-03T06:42:03.123Z,48.2
2018-01-03T06:43:04.734Z,48.2
2018-01-03T06:44:05.776Z,48.1
2018-01-03T06:45:07.097Z,48.3
2018-01-03T06:46:08.415Z,47.9
2018-01-03T06:47:09.739Z,48.3
2018-01-03T06:48:11.336Z,47.5
2018-01-03T06:49:13.233Z,47.7
2018-01-03T06:50:14.830Z,47.8
2018-01-03T06:51:16.454Z,47.6
2018-01-03T06:52:18.348Z,48.2
2018-01-03T06:53:19.389Z,47.8
2018-01-03T06:54:20.731Z,48.3
2018-01-03T06:55:22.329Z,48.3
2018-01-03T06:56:23.960Z,48
2018-01-03T06:57:25.858Z,48.3
2018-01-03T06:58:27.471Z,47.7
2018-01-03T06:59:28.811Z,48.3
2018-01-03T07:00:30.707Z,48.2
2018-01-03T07:01:32.608Z,47.9
2018-01-03T07:02:33.928Z,47.6
2018-01-03T07:03:34.973Z,48.1
2018-01-03T07:04:36.870Z,48.3
2018-01-03T07:05:37.915Z,48.1
2018-01-03T07:06:38.956Z,48.3
2018-01-03T07:07:40.574Z,48.1
2018-01-03T07:08:42.192Z,48.2
2018-01-03T07:09:43.535Z,47.5
2018-01-03T07:10:45.431Z,48.1
2018-01-03T07:11:46.752Z,48.3
2018-01-03T07:12:48.648Z,48.1
2018-01-03T07:13:50.250Z,47.9
2018-01-03T07:14:51.301Z,47.6
2018-01-03T07:15:52.919Z,48.1
2018-01-03T07:16:54.820Z,47.5
2018-01-03T07:17:55.862Z,48
2018-01-03T07:18:57.208Z,48.1
2018-01-03T07:19:58.826Z,47.7
2018-01-03T07:21:00.448Z,48.4
2018-01-03T07:22:02.346Z,47.8
2018-01-03T07:23:03.393Z,47.8
2018-01-03T07:24:04.444Z,48.2
2018-01-03T07:25:06.042Z,47.8
2018-01-03T07:26:07.662Z,48.3
2018-01-03T07:27:09.284Z,48.1
2018-01-03T07:28:11.181Z,48.3
2018-01-03T07:29:12.843Z,48.1
2018-01-03T07:30:14.461Z,47.9
2018-01-03T07:31:16.359Z,48.4
2018-01-03T07:32:17.977Z,48.2
2018-01-03T07:33:19.578Z,47.8
2018-01-03T07:34:20.919Z,47.7
2018-01-03T07:35:22.536Z,47.7
2018-01-03T07:36:24.158Z,48
2018-01-03T07:37:26.056Z,47.9
2018-01-03T07:38:27.376Z,47.9
2018-01-03T07:39:28.997Z,47.9
2018-01-03T07:40:30.624Z,47.8
2018-01-03T07:41:32.239Z,47.8
2018-01-03T07:42:33.862Z,48.1
2018-01-03T07:43:35.757Z,48.2
2018-01-03T07:44:37.385Z,47.7
2018-01-03T07:45:39.281Z,48.4
2018-01-03T07:46:40.882Z,47.9
2018-01-03T07:47:42.503Z,47.7
2018-01-03T07:48:43.542Z,48
2018-01-03T07:49:45.441Z,47.9
2018-01-03T07:50:47.061Z,48.2
2018-01-03T07:51:48.106Z,48.2
2018-01-03T07:52:49.174Z,47.7
2018-01-03T07:53:51.075Z,47.8
2018-01-03T07:54:52.973Z,48.2
2018-01-03T07:55:54.641Z,48.2
2018-01-03T07:56:56.253Z,47.8
2018-01-03T07:57:58.197Z,47.9
2018-01-03T07:58:59.544Z,47.6
2018-01-03T08:00:00.609Z,48.3
2018-01-03T08:01:02.514Z,47.7
2018-01-03T08:02:04.413Z,47.7
2018-01-03T08:03:06.029Z,47.9
2018-01-03T08:04:07.964Z,47.7
2018-01-03T08:05:09.026Z,47.8
2018-01-03T08:06:10.625Z,47.9
2018-01-03T08:07:12.526Z,47.7
2018-01-03T08:08:13.872Z,47.6
2018-01-03T08:09:15.490Z,48.2
2018-01-03T08:10:17.387Z,47.7
2018-01-03T08:11:19.287Z,47.9
2018-01-03T08:12:20.631Z,47.7
2018-01-03T08:13:22.250Z,47.7
2018-01-03T08:14:23.867Z,47.6
2018-01-03T08:15:25.490Z,47.6
2018-01-03T08:16:26.869Z,48.1
2018-01-03T08:17:28.154Z,47.8
2018-01-03T08:18:29.775Z,48.3
2018-01-03T08:19:31.117Z,48.1
2018-01-03T08:20:32.184Z,47.8
2018-01-03T08:21:33.227Z,47.9
2018-01-03T08:22:34.548Z,48.1
2018-01-03T08:23:35.589Z,48.3
2018-01-03T08:24:37.184Z,47.7
2018-01-03T08:25:38.843Z,47.7
2018-01-03T08:26:40.164Z,48.2
2018-01-03T08:27:41.784Z,48.1
2018-01-03T08:28:43.124Z,47.7
2018-01-03T08:29:44.744Z,47.8
2018-01-03T08:30:46.365Z,48.3
2018-01-03T08:31:47.718Z,47.8
2018-01-03T08:32:49.617Z,48.3
2018-01-03T08:33:51.315Z,48.1
2018-01-03T08:34:52.935Z,47.8
2018-01-03T08:35:54.561Z,47.7
2018-01-03T08:36:56.458Z,47.8
2018-01-03T08:37:57.507Z,47.7
2018-01-03T08:38:59.129Z,48
2018-01-03T08:40:00.747Z,48
2018-01-03T08:41:02.369Z,47.9
2018-01-03T08:42:03.687Z,47.6
2018-01-03T08:43:05.308Z,47.8
2018-01-03T08:44:06.654Z,47.9
2018-01-03T08:45:08.276Z,48
2018-01-03T08:46:09.616Z,47.7
2018-01-03T08:47:10.684Z,47.8
2018-01-03T08:48:12.582Z,48
2018-01-03T08:49:13.929Z,47.8
2018-01-03T08:50:15.823Z,47.6
2018-01-03T08:51:17.446Z,47.5
2018-01-03T08:52:19.344Z,48
2018-01-03T08:53:20.671Z,48
2018-01-03T08:54:22.006Z,47.7
2018-01-03T08:55:23.906Z,47.9
2018-01-03T08:56:25.524Z,47.9
2018-01-03T08:57:27.147Z,48
2018-01-03T08:58:28.491Z,47.9
2018-01-03T08:59:30.142Z,47.9
2018-01-03T09:00:31.760Z,47.7
2018-01-03T09:01:33.080Z,47.9
2018-01-03T09:02:34.702Z,48
2018-01-03T09:03:36.322Z,48
2018-01-03T09:04:37.940Z,48
2018-01-03T09:05:39.842Z,48
2018-01-03T09:06:40.891Z,48.1
2018-01-03T09:07:42.513Z,47.9
2018-01-03T09:08:44.133Z,47.8
2018-01-03T09:09:45.728Z,47.9
2018-01-03T09:10:47.350Z,47.5
2018-01-03T09:11:48.407Z,47.9
2018-01-03T09:12:50.022Z,47.5
2018-01-03T09:13:51.621Z,47.9
2018-01-03T09:14:52.668Z,47.8
2018-01-03T09:15:54.290Z,47.9
2018-01-03T09:16:55.892Z,48
2018-01-03T09:17:57.512Z,47.8
2018-01-03T09:18:58.850Z,47.9
2018-01-03T09:20:00.237Z,47.5
2018-01-03T09:21:02.130Z,47.7
2018-01-03T09:22:03.751Z,47.7
2018-01-03T09:23:05.377Z,47.5
2018-01-03T09:24:06.711Z,47.9
2018-01-03T09:25:08.331Z,47.4
2018-01-03T09:26:09.949Z,47.8
2018-01-03T09:27:11.849Z,47.6
2018-01-03T09:28:13.745Z,47.8
2018-01-03T09:29:15.345Z,48.1
2018-01-03T09:30:16.690Z,47.4
2018-01-03T09:31:18.310Z,47.8
2018-01-03T09:32:20.207Z,47.1
2018-01-03T09:33:21.832Z,47.9
2018-01-03T09:34:23.449Z,47.3
2018-01-03T09:35:25.412Z,47.8
2018-01-03T09:36:26.748Z,47.7
2018-01-03T09:37:28.366Z,47.7
2018-01-03T09:38:29.697Z,47.7
2018-01-03T09:39:31.044Z,47.8
2018-01-03T09:40:32.663Z,47.8
2018-01-03T09:41:34.265Z,47.1
2018-01-03T09:42:35.583Z,47.1
2018-01-03T09:43:36.645Z,47.8
2018-01-03T09:44:37.964Z,47.8
2018-01-03T09:45:39.862Z,47.7
2018-01-03T09:46:41.184Z,47.7
2018-01-03T09:47:42.505Z,47.6
2018-01-03T09:48:43.567Z,47.5
2018-01-03T09:49:44.615Z,47.1
2018-01-03T09:50:46.532Z,47.8
2018-01-03T09:51:48.434Z,47.6
2018-01-03T09:52:50.329Z,47.3
2018-01-03T09:53:52.280Z,47.5
2018-01-03T09:54:53.591Z,47.2
2018-01-03T09:55:55.485Z,47.4
2018-01-03T09:56:57.383Z,47.5
2018-01-03T09:57:59.009Z,47.2
2018-01-03T09:59:00.631Z,47.5
2018-01-03T10:00:01.972Z,47.3
2018-01-03T10:01:03.871Z,47.4
2018-01-03T10:02:05.212Z,47.3
2018-01-03T10:03:06.832Z,47.4
2018-01-03T10:04:08.732Z,47.4
2018-01-03T10:05:10.630Z,47.4
2018-01-03T10:06:12.530Z,47.1
2018-01-03T10:07:13.849Z,47.3
2018-01-03T10:08:15.468Z,47.4
2018-01-03T10:09:17.367Z,47.4
2018-01-03T10:10:19.372Z,47.4
2018-01-03T10:11:20.986Z,47.3
2018-01-03T10:12:22.327Z,47.3
2018-01-03T10:13:23.926Z,47.3
2018-01-03T10:14:25.821Z,47.5
2018-01-03T10:15:27.718Z,47.3
2018-01-03T10:16:29.072Z,47.3
2018-01-03T10:17:31.136Z,47.2
2018-01-03T10:18:32.753Z,47.4
2018-01-03T10:19:34.649Z,47.5
2018-01-03T10:20:36.266Z,47.3
2018-01-03T10:21:37.587Z,47.2
2018-01-03T10:22:39.208Z,47.4
2018-01-03T10:23:41.105Z,47.2
2018-01-03T10:24:42.725Z,47.2
2018-01-03T10:25:44.631Z,47
2018-01-03T10:26:46.249Z,47.1
2018-01-03T10:27:47.590Z,47.2
2018-01-03T10:28:48.939Z,47.1
2018-01-03T10:29:49.977Z,47.1
2018-01-03T10:30:51.606Z,47.1
2018-01-03T10:31:53.509Z,47.1
2018-01-03T10:32:55.129Z,47.1
2018-01-03T10:33:56.751Z,47.1
2018-01-03T10:34:58.094Z,47.1
2018-01-03T10:35:59.991Z,47.1
2018-01-03T10:37:01.611Z,47
2018-01-03T10:38:03.244Z,47
2018-01-03T10:39:04.863Z,47.1
2018-01-03T10:40:06.482Z,47.1
2018-01-03T10:41:08.111Z,47.1
2018-01-03T10:44:10.500Z,47.1
2018-01-03T10:45:12.120Z,47
2018-01-03T10:46:13.717Z,46.8
2018-01-03T10:47:15.617Z,46.9
2018-01-03T10:48:17.213Z,47
2018-01-03T10:49:18.835Z,47.1
2018-01-03T10:50:20.451Z,46.9
2018-01-03T10:51:22.052Z,47
2018-01-03T10:52:23.088Z,47
2018-01-03T10:53:24.986Z,46.9
2018-01-03T10:54:26.305Z,47
2018-01-03T10:55:28.212Z,47.1
2018-01-03T10:56:30.103Z,46.9
2018-01-03T10:57:31.480Z,46.8
2018-01-03T10:58:33.101Z,46.7
2018-01-03T10:59:34.709Z,47.1
2018-01-03T11:00:36.606Z,46.8
2018-01-03T11:01:38.229Z,46.8
2018-01-03T11:02:39.851Z,46.9
2018-01-03T11:03:41.471Z,46.8
2018-01-03T11:04:42.541Z,46.9
2018-01-03T11:05:43.588Z,46.8
2018-01-03T11:06:45.187Z,47.1
2018-01-03T11:07:47.138Z,47.1
2018-01-03T11:08:48.756Z,47.1
2018-01-03T11:09:50.078Z,46.8
2018-01-03T11:10:51.696Z,47.1
2018-01-03T11:11:53.039Z,46.9
2018-01-03T11:12:54.941Z,46.9
2018-01-03T11:13:56.261Z,46.8
2018-01-03T11:14:57.605Z,47
2018-01-03T11:15:59.228Z,46.9
2018-01-03T11:17:00.856Z,46.7
2018-01-03T11:18:02.750Z,46.9
2018-01-03T11:19:04.353Z,46.9
2018-01-03T11:20:06.249Z,46.9
2018-01-03T11:21:07.573Z,47
2018-01-03T11:22:08.901Z,46.9
2018-01-03T11:23:10.525Z,46.8
2018-01-03T11:24:11.861Z,46.8
2018-01-03T11:25:13.478Z,46.9
2018-01-03T11:26:14.827Z,46.9
2018-01-03T11:27:16.727Z,46.9
2018-01-03T11:28:18.623Z,46.8
2018-01-03T11:29:20.246Z,46.6
2018-01-03T11:30:21.587Z,46.5
2018-01-03T11:31:23.210Z,46.7
2018-01-03T11:32:24.280Z,46.6
2018-01-03T11:33:25.899Z,46.6
2018-01-03T11:34:27.524Z,46.5
2018-01-03T11:35:28.572Z,46.6
2018-01-03T11:36:29.917Z,46.7
2018-01-03T11:37:31.237Z,46.7
2018-01-03T11:38:32.837Z,46.6
2018-01-03T11:39:34.731Z,46.6
2018-01-03T11:40:36.355Z,46.6
2018-01-03T11:41:38.019Z,46.7
2018-01-03T11:42:39.907Z,46.8
2018-01-03T11:43:41.509Z,46.6
2018-01-03T11:44:43.127Z,46.7
2018-01-03T11:45:44.450Z,46.6
2018-01-03T11:46:45.773Z,46.6
2018-01-03T11:47:46.821Z,46.6
2018-01-03T11:48:48.441Z,46.6
2018-01-03T11:49:50.058Z,46.6
2018-01-03T11:50:51.656Z,46.8
2018-01-03T11:51:53.256Z,46.4
2018-01-03T11:52:54.323Z,46.6
2018-01-03T11:53:55.650Z,46.6
2018-01-03T11:54:57.004Z,46.4
2018-01-03T11:55:58.902Z,46.6
2018-01-03T11:56:59.945Z,46.5
2018-01-03T11:58:01.565Z,46.4
2018-01-03T11:59:02.630Z,46.5
2018-01-03T12:00:04.249Z,46.6
2018-01-03T12:01:06.147Z,46.6
2018-01-03T12:02:07.492Z,46.8
2018-01-03T12:03:08.832Z,46.8
2018-01-03T12:04:10.726Z,46.8
2018-01-03T12:05:12.352Z,46.5
2018-01-03T12:06:13.972Z,46.5
2018-01-03T12:07:15.870Z,46.5
2018-01-03T12:08:17.765Z,46.5
2018-01-03T12:09:19.107Z,46.5
2018-01-03T12:10:21.006Z,46.6
2018-01-03T12:11:22.954Z,46.6
2018-01-03T12:12:24.553Z,46.6
2018-01-03T12:13:26.172Z,46.6
2018-01-03T12:14:27.772Z,46.5
2018-01-03T12:15:29.668Z,46.5
2018-01-03T12:16:31.015Z,46.6
2018-01-03T12:17:32.618Z,46.6
2018-01-03T12:18:34.512Z,46.6
2018-01-03T12:19:36.133Z,46.6
2018-01-03T12:20:37.732Z,46.5
2018-01-03T12:21:38.776Z,46.6
2018-01-03T12:22:40.376Z,46.7
2018-01-03T12:23:41.698Z,46.6
2018-01-03T12:24:43.320Z,46.5
2018-01-03T12:25:44.939Z,46.5
2018-01-03T12:26:46.283Z,46.6
2018-01-03T12:27:47.604Z,46.8
2018-01-03T12:28:49.200Z,46.8
2018-01-03T12:29:50.520Z,46.5
2018-01-03T12:30:52.139Z,46.8
2018-01-03T12:31:54.036Z,46.8
2018-01-03T12:32:55.959Z,46.8
2018-01-03T12:33:57.863Z,46.6
2018-01-03T12:34:59.473Z,46.5
2018-01-03T12:36:00.819Z,46.7
2018-01-03T12:37:02.516Z,46.5
2018-01-03T12:38:04.138Z,46.6
2018-01-03T12:39:05.480Z,46.8
2018-01-03T12:40:07.099Z,46.5
2018-01-03T12:41:08.439Z,46.8
2018-01-03T12:42:09.484Z,46.5
2018-01-03T12:43:11.104Z,46.8
2018-01-03T12:44:13.005Z,46.6
2018-01-03T12:45:14.624Z,46.6
2018-01-03T12:46:15.690Z,46.6
2018-01-03T12:47:17.307Z,46.6
2018-01-03T12:48:18.650Z,46.4
2018-01-03T12:49:20.295Z,46.6
2018-01-03T12:50:21.615Z,46.7
2018-01-03T12:51:23.516Z,46.3
2018-01-03T12:52:25.136Z,46.7
2018-01-03T12:53:26.751Z,46.4
2018-01-03T12:54:28.071Z,46.4
2018-01-03T12:55:29.970Z,46.7
2018-01-03T12:56:31.314Z,46.3
2018-01-03T12:57:32.128Z,46.5
2018-01-03T12:58:33.728Z,46.3
2018-01-03T12:59:35.114Z,46.5
2018-01-03T13:00:36.706Z,46.3
2018-01-03T13:01:38.600Z,46.3
2018-01-03T13:02:39.924Z,46.4
2018-01-03T13:03:41.544Z,46.3
2018-01-03T13:04:43.143Z,46.5
2018-01-03T13:05:44.485Z,46.6
2018-01-03T13:06:46.110Z,46.2
2018-01-03T13:07:47.704Z,46.1
2018-01-03T13:08:49.600Z,46.6
2018-01-03T13:09:51.495Z,46.5
2018-01-03T13:10:53.390Z,46.3
2018-01-03T13:11:55.284Z,46.3
2018-01-03T13:12:56.626Z,46.3
2018-01-03T13:13:57.688Z,46.5
2018-01-03T13:14:59.307Z,46.1
2018-01-03T13:16:00.923Z,46.4
2018-01-03T13:17:02.548Z,46.6
2018-01-03T13:18:04.166Z,46.6
2018-01-03T13:19:05.509Z,46.1
2018-01-03T13:20:07.127Z,46.2
2018-01-03T13:21:08.743Z,46.5
2018-01-03T13:22:10.369Z,46.2
2018-01-03T13:23:12.270Z,46.5
2018-01-03T13:24:13.593Z,46.3
2018-01-03T13:25:15.488Z,46.4
2018-01-03T13:26:17.090Z,46.5
2018-01-03T13:27:18.986Z,46.2
2018-01-03T13:28:20.412Z,46.2
2018-01-03T13:29:22.071Z,46.2
2018-01-03T13:30:23.412Z,46.3
2018-01-03T13:31:25.314Z,46.2
2018-01-03T13:32:26.362Z,46.2
2018-01-03T13:33:27.129Z,46.1
2018-01-03T13:34:28.472Z,46.5
2018-01-03T13:35:29.541Z,46.1
2018-01-03T13:36:30.867Z,46.2
2018-01-03T13:37:32.766Z,46.3
2018-01-03T13:38:34.105Z,46.2
2018-01-03T13:39:35.430Z,46.1
2018-01-03T13:40:37.025Z,46.1
2018-01-03T13:41:38.632Z,46.1
2018-01-03T13:42:39.962Z,46.2
2018-01-03T13:43:41.295Z,46.1
2018-01-03T13:44:42.892Z,46.1
2018-01-03T13:45:44.515Z,46.2
2018-01-03T13:46:46.114Z,46.2